地図

経路データ

SID SEASON NUMBER BASIN SUBBASIN NAME ISO_TIME NATURE LAT LON WMO_WIND WMO_PRES WMO_AGENCY TRACK_TYPE DIST2LAND LANDFALL IFLAG USA_AGENCY USA_ATCF_ID USA_LAT USA_LON USA_RECORD USA_STATUS USA_WIND USA_PRES USA_SSHS USA_R34_NE USA_R34_SE USA_R34_SW USA_R34_NW USA_R50_NE USA_R50_SE USA_R50_SW USA_R50_NW USA_R64_NE USA_R64_SE USA_R64_SW USA_R64_NW USA_POCI USA_ROCI USA_RMW USA_EYE TOKYO_LAT TOKYO_LON TOKYO_GRADE TOKYO_WIND TOKYO_PRES TOKYO_R50_DIR TOKYO_R50_LONG TOKYO_R50_SHORT TOKYO_R30_DIR TOKYO_R30_LONG TOKYO_R30_SHORT TOKYO_LAND CMA_LAT CMA_LON CMA_CAT CMA_WIND CMA_PRES HKO_LAT HKO_LON HKO_CAT HKO_WIND HKO_PRES NEWDELHI_LAT NEWDELHI_LON NEWDELHI_GRADE NEWDELHI_WIND NEWDELHI_PRES NEWDELHI_CI NEWDELHI_DP NEWDELHI_POCI REUNION_LAT REUNION_LON REUNION_TYPE REUNION_WIND REUNION_PRES REUNION_TNUM REUNION_CI REUNION_RMW REUNION_R34_NE REUNION_R34_SE REUNION_R34_SW REUNION_R34_NW REUNION_R50_NE REUNION_R50_SE REUNION_R50_SW REUNION_R50_NW REUNION_R64_NE REUNION_R64_SE REUNION_R64_SW REUNION_R64_NW BOM_LAT BOM_LON BOM_TYPE BOM_WIND BOM_PRES BOM_TNUM BOM_CI BOM_RMW BOM_R34_NE BOM_R34_SE BOM_R34_SW BOM_R34_NW BOM_R50_NE BOM_R50_SE BOM_R50_SW BOM_R50_NW BOM_R64_NE BOM_R64_SE BOM_R64_SW BOM_R64_NW BOM_ROCI BOM_POCI BOM_EYE BOM_POS_METHOD BOM_PRES_METHOD NADI_LAT NADI_LON NADI_CAT NADI_WIND NADI_PRES WELLINGTON_LAT WELLINGTON_LON WELLINGTON_WIND WELLINGTON_PRES DS824_LAT DS824_LON DS824_STAGE DS824_WIND DS824_PRES TD9636_LAT TD9636_LON TD9636_STAGE TD9636_WIND TD9636_PRES TD9635_LAT TD9635_LON TD9635_WIND TD9635_PRES TD9635_ROCI NEUMANN_LAT NEUMANN_LON NEUMANN_CLASS NEUMANN_WIND NEUMANN_PRES MLC_LAT MLC_LON MLC_CLASS MLC_WIND MLC_PRES USA_GUST BOM_GUST BOM_GUST_PER REUNION_GUST REUNION_GUST_PER USA_SEAHGT USA_SEARAD_NE USA_SEARAD_SE USA_SEARAD_SW USA_SEARAD_NW STORM_SPEED STORM_DIR
1958331S09179 1959 111 SP MM NOT_NAMED 1958-11-27 11:00:00 NR -9.10000 179.100 main 798 776 __________O___ -1 -9.10000 179.100 1 20 12 0
1958331S09179 1959 111 SP MM NOT_NAMED 1958-11-27 12:00:00 TS -9.29951 179.104 main 776 708 O_________P___ jtwc_sh SH041959 -9.30000 179.100 20 -1 -9.29902 179.107 1 19 13 177
1958331S09179 1959 111 SP MM NOT_NAMED 1958-11-27 15:00:00 TS -9.97803 179.159 main 697 652 P_________P___ SH041959 -10.0575 179.187 17 -1 -9.87206 179.122 1 18 11 177
1958331S09179 1959 111 SP MM NOT_NAMED 1958-11-27 18:00:00 TS -10.4031 179.160 main 652 620 O________OP___ jtwc_sh SH041959 -10.6000 179.200 15 -1 -9.40000 179.100 TC 25 1002 -10.3585 179.114 1 17 7 187
1958331S09179 1959 111 SP MM NOT_NAMED 1958-11-27 21:00:00 TS -10.6614 179.072 main 620 620 P________PP___ SH041959 -10.7775 179.088 15 -1 -10.1337 179.028 TC 22 1003 -10.6932 179.064 1 15 4 209
1958331S09179 1959 111 SP MM NOT_NAMED 1958-11-27 23:00:00 TS -10.7178 178.982 main 621 621 P________PO___ SH041959 -10.7434 178.966 15 -1 -10.5402 179.002 TC 20 1003 -10.8000 179.000 1 15 3 243
1958331S09179 1959 111 SP MM NOT_NAMED 1958-11-28 00:00:00 TS -10.7280 178.939 main 623 623 O________OP___ jtwc_sh SH041959 -10.7000 178.900 15 -1 -10.7000 179.000 TC 20 1004 -10.8122 178.957 1 15 3 279
1958331S09179 1959 111 SP MM NOT_NAMED 1958-11-28 03:00:00 TS -10.6915 178.812 main 625 625 P________PP___ SH041959 -10.5450 178.707 15 -1 -10.9706 179.044 TC -10.7055 178.788 1 15 3 310
1958331S09179 1959 111 SP MM NOT_NAMED 1958-11-28 06:00:00 TS -10.5055 178.675 main 649 649 O________PP___ jtwc_sh SH041959 -10.3000 178.500 15 -1 -10.9750 179.119 TC -10.4471 178.579 1 15 5 328
1958331S09179 1959 111 SP MM NOT_NAMED 1958-11-28 09:00:00 TS -10.2500 178.530 main 686 686 P________PP___ SH041959 -10.0500 178.300 15 -1 -10.7816 179.170 TC -10.1182 178.351 1 15 6 331
1958331S09179 1959 111 SP MM NOT_NAMED 1958-11-28 11:00:00 TS -10.0593 178.424 main 699 699 P________PO___ SH041959 -9.88024 178.167 15 -1 -10.5767 179.161 TC -9.90000 178.200 1 15 7 330
1958331S09179 1959 111 SP MM NOT_NAMED 1958-11-28 12:00:00 TS -9.96671 178.366 main 710 710 O________PP___ jtwc_sh SH041959 -9.80000 178.100 15 -1 -10.4591 179.137 TC -9.80779 178.125 1 15 7 324
1958331S09179 1959 111 SP MM NOT_NAMED 1958-11-28 15:00:00 TS -9.69995 178.162 main 748 748 P________PP___ SH041959 -9.60000 177.893 17 -1 -10.0758 178.966 TC -9.52402 177.895 1 16 7 320
1958331S09179 1959 111 SP MM NOT_NAMED 1958-11-28 18:00:00 TS -9.44089 177.919 main 788 788 O________OP___ jtwc_sh SH041959 -9.40000 177.700 20 -1 -9.70000 178.600 TC 25 1003 -9.26355 177.677 1 17 8 315
1958331S09179 1959 111 SP MM NOT_NAMED 1958-11-28 21:00:00 TS -9.16391 177.626 main 819 819 P________PP___ SH041959 -9.10500 177.527 20 -1 -9.37554 177.956 TC 25 1002 -9.07010 177.493 1 19 8 312
1958331S09179 1959 111 SP MM NOT_NAMED 1958-11-28 23:00:00 TS -9.01772 177.444 main 847 847 P________PO___ SH041959 -8.94599 177.436 20 -1 -9.17889 177.506 TC 25 1002 -9.00000 177.400 1 20 6 307
1958331S09179 1959 111 SP MM NOT_NAMED 1958-11-29 00:00:00 TS -8.97337 177.367 main 847 847 O________OP___ jtwc_sh SH041959 -8.90000 177.400 20 -1 -9.10000 177.300 TC 25 1002 -8.99347 177.368 1 20 4 278
1958331S09179 1959 111 SP MM NOT_NAMED 1958-11-29 03:00:00 TS -8.98133 177.192 main 854 847 P________PP___ SH041959 -8.93249 177.328 20 -1 -9.00979 176.802 TC -9.05054 177.312 1 20 3 243
1958331S09179 1959 111 SP MM NOT_NAMED 1958-11-29 06:00:00 TS -9.11385 177.083 main 847 829 O________PP___ jtwc_sh SH041959 -9.10000 177.300 20 -1 -9.06441 176.436 TC -9.19100 177.295 1 20 4 207
1958331S09179 1959 111 SP MM NOT_NAMED 1958-11-29 09:00:00 TS -9.29540 177.027 main 829 818 P________PP___ SH041959 -9.29250 177.300 20 -1 -9.22240 176.208 TC -9.37420 177.298 1 20 4 192
1958331S09179 1959 111 SP MM NOT_NAMED 1958-11-29 11:00:00 TS -9.43305 177.010 main 818 808 P________PO___ SH041959 -9.43379 177.303 20 -1 -9.36463 176.135 TC -9.50000 177.300 1 20 4 188
1958331S09179 1959 111 SP MM NOT_NAMED 1958-11-29 12:00:00 TS -9.49536 177.004 main 808 787 O________PP___ jtwc_sh SH041959 -9.50000 177.300 20 -1 -9.44218 176.122 TC -9.53926 177.295 1 20 3 0
1958331S09179 1959 111 SP MM NOT_NAMED 1958-11-29 15:00:00 TS -9.66038 176.992 main 787 776 P________PP___ SH041959 -9.65000 177.250 22 -1 -9.68203 176.184 TC -9.65950 177.283 1 23 3 178
1958331S09179 1959 111 SP MM NOT_NAMED 1958-11-29 18:00:00 TS -9.82389 177.016 main 776 751 O________OP___ jtwc_sh SH041959 -9.80000 177.200 25 -1 -9.90000 176.400 TC 30 1000 -9.79557 177.265 1 25 4 160
1958331S09179 1959 111 SP MM NOT_NAMED 1958-11-29 21:00:00 TS -9.98896 177.111 main 751 737 P________PP___ SH041959 -9.97750 177.207 27 -1 -10.0377 176.796 TC 27 1001 -9.96311 177.234 1 28 4 153
1958331S09179 1959 111 SP MM NOT_NAMED 1958-11-29 23:00:00 TS -10.1201 177.174 main 737 726 P________PO___ SH041959 -10.1193 177.209 29 -1 -10.1416 177.078 TC 25 1002 -10.1000 177.200 1 30 4 160
1958331S09179 1959 111 SP MM NOT_NAMED 1958-11-30 00:00:00 TS -10.1959 177.193 main 726 705 O________OP___ jtwc_sh SH041959 -10.2000 177.200 30 -1 -10.2000 177.200 TC 25 1003 -10.1836 177.172 1 29 5 182
1958331S09179 1959 111 SP MM NOT_NAMED 1958-11-30 03:00:00 TS -10.4532 177.160 main 695 678 P________PP___ SH041959 -10.4850 177.115 27 -1 -10.3738 177.341 TC -10.4689 177.069 1 28 6 193
1958331S09179 1959 111 SP MM NOT_NAMED 1958-11-30 06:00:00 TS -10.7404 177.066 main 678 652 O________PP___ jtwc_sh SH041959 -10.8000 177.000 25 -1 -10.5774 177.309 TC -10.7843 176.955 1 27 6 199
1958331S09179 1959 111 SP MM NOT_NAMED 1958-11-30 09:00:00 TS -11.0382 176.949 main 656 635 P________PP___ SH041959 -11.1150 176.893 25 -1 -10.8214 177.161 TC -11.1014 176.852 1 25 6 201
1958331S09179 1959 111 SP MM NOT_NAMED 1958-11-30 11:00:00 TS -11.2336 176.870 main 635 624 P________PO___ SH041959 -11.3114 176.828 25 -1 -11.0116 177.027 TC -11.3000 176.800 1 25 6 202
1958331S09179 1959 111 SP MM NOT_NAMED 1958-11-30 12:00:00 TS -11.3176 176.834 main 628 608 O________PP___ jtwc_sh SH041959 -11.4000 176.800 25 -1 -11.1161 176.955 TC -11.3543 176.781 1 25 5 203
1958331S09179 1959 111 SP MM NOT_NAMED 1958-11-30 15:00:00 TS -11.5438 176.736 main 612 581 P________PP___ SH041959 -11.6075 176.728 27 -1 -11.4720 176.749 TC -11.4880 176.742 1 28 5 197
1958331S09179 1959 111 SP MM NOT_NAMED 1958-11-30 18:00:00 TS -11.7865 176.684 main 581 560 O________OP___ jtwc_sh SH041959 -11.8000 176.700 30 -1 -11.9000 176.600 TC 35 996 -11.6458 176.734 1 30 5 181
1958331S09179 1959 111 SP MM NOT_NAMED 1958-11-30 21:00:00 TS -12.0670 176.711 main 550 525 P________PP___ SH041959 -11.9375 176.720 32 -1 -12.4779 176.641 TC -11.9152 176.761 1 33 7 173
1958331S09179 1959 111 SP MM NOT_NAMED 1958-11-30 23:00:00 TS -12.3444 176.758 main 525 504 P________PO___ SH041959 -12.1341 176.767 34 0 -12.9095 176.697 TC -12.2000 176.800 2 35 10 170
1958331S09179 1959 111 SP MM NOT_NAMED 1958-12-01 00:00:00 TS -12.5399 176.789 main 504 417 O________PP___ jtwc_sh SH041959 -12.3000 176.800 35 0 -13.1344 176.732 TC -12.4253 176.823 2 34 15 171
1958331S09179 1959 111 SP MM NOT_NAMED 1958-12-01 03:00:00 TS -13.3568 176.917 main 407 317 P________PP___ SH041959 -13.1751 176.942 32 -1 -13.8272 176.862 TC -13.2499 176.921 2 33 18 171
1958331S09179 1959 111 SP MM NOT_NAMED 1958-12-01 06:00:00 TS -14.2748 177.068 main 307 235 O________PP___ jtwc_sh SH041959 -14.2000 177.100 30 -1 -14.5140 177.022 TC -14.1854 177.050 2 32 18 171
1958331S09179 1959 111 SP MM NOT_NAMED 1958-12-01 09:00:00 TS -15.0837 177.201 main 226 185 P________PP___ SH041959 -15.0474 177.200 30 -1 -15.1523 177.205 TC -15.0878 177.197 2 30 15 170
1958331S09179 1959 111 SP MM NOT_NAMED 1958-12-01 11:00:00 TS -15.5384 177.290 main 185 170 P________PO___ SH041959 -15.5118 177.264 30 -1 -15.5301 177.334 TC -15.6000 177.300 1 30 13 168
1958331S09179 1959 111 SP MM NOT_NAMED 1958-12-01 12:00:00 TS -15.7166 177.334 main 170 126 O________OP___ jtwc_sh SH041959 -15.7000 177.300 30 -1 -15.7000 177.400 TC 65 976 -15.7663 177.337 1 30 9 162
1958331S09179 1959 111 SP MM NOT_NAMED 1958-12-01 15:00:00 TS -16.0958 177.483 main 126 101 P________PP___ SH041959 -16.0525 177.435 30 -1 -16.1339 177.612 TC 65 976 -16.1444 177.450 1 32 7 156
1958331S09179 1959 111 SP MM NOT_NAMED 1958-12-01 18:00:00 TS -16.3793 177.645 main 101 74 O________OP___ jtwc_sh SH041959 -16.3000 177.600 30 -1 -16.5000 177.800 TC 65 976 -16.4170 177.582 1 34 7 153
1958331S09179 1959 111 SP MM NOT_NAMED 1958-12-01 21:00:00 TS -16.6921 177.798 main 74 56 P________PP___ SH041959 -16.6550 177.778 35 0 -16.7774 177.885 TC 65 976 -16.6810 177.753 1 36 7 155
1958331S09179 1959 111 SP MM NOT_NAMED 1958-12-01 23:00:00 TS -16.9384 177.922 main 56 33 P________PO___ SH041959 -16.9386 177.919 38 0 -16.9766 177.949 TC 65 976 -16.9000 177.900 2 38 9 155
1958331S09179 1959 111 SP MM NOT_NAMED 1958-12-02 00:00:00 TS -17.0913 177.990 main 33 0 O________OP___ jtwc_sh SH041959 -17.1000 178.000 40 0 -17.1000 178.000 TC 65 976 -17.0674 177.961 2 39 12 157
1958331S09179 1959 111 SP MM NOT_NAMED 1958-12-02 03:00:00 TS -17.6517 178.236 main 0 0 P________PP___ SH041959 -17.6774 178.263 45 0 -17.5952 178.254 TC 62 978 -17.6284 178.175 2 45 13 155
1958331S09179 1959 111 SP MM NOT_NAMED 1958-12-02 06:00:00 TS -18.2725 178.562 main 22 22 O________OP___ jtwc_sh SH041959 -18.3000 178.600 50 0 -18.2000 178.600 TC 60 980 -18.2355 178.475 2 50 14 151
1958331S09179 1959 111 SP MM NOT_NAMED 1958-12-02 09:00:00 TS -18.8643 178.959 main 94 94 P_________P___ SH041959 -18.8796 178.983 55 0 TC -18.8336 178.910 2 56 14 144
1958331S09179 1959 111 SP MM NOT_NAMED 1958-12-02 11:00:00 TS -19.2241 179.305 main 138 138 P_________O___ SH041959 -19.2362 179.308 58 0 TC -19.2000 179.300 2 60 15 135
1958331S09179 1959 111 SP MM NOT_NAMED 1958-12-02 12:00:00 TS -19.3898 179.524 main 168 168 O_________P___ jtwc_sh SH041959 -19.4000 179.500 60 0 -19.3694 179.573 2 61 17 122
1958331S09179 1959 111 SP MM NOT_NAMED 1958-12-02 15:00:00 TS -19.8373 180.339 main 253 253 P_________P___ SH041959 -19.8384 -179.713 65 1 -19.8351 -179.557 2 66 17 120
1958331S09179 1959 111 SP MM NOT_NAMED 1958-12-02 17:00:00 TS -20.0909 180.831 main 314 314 P_________O___ SH041959 -20.0864 -179.203 68 1 -20.1000 -179.100 3 70 15 121
1958331S09179 1959 111 SP MM NOT_NAMED 1958-12-02 18:00:00 TS -20.2066 181.003 main 336 336 O_________P___ jtwc_sh SH041959 -20.2000 -179.000 70 1 -20.2197 -178.991 3 62 8 142
1958331S09179 1959 111 SP MM NOT_NAMED 1958-12-02 21:00:00 TS -20.5227 181.190 main 375 375 P_________P___ SH041959 -20.5216 -178.777 45 0 -20.5250 -178.876 3 40 7 153
1958331S09179 1959 111 SP MM NOT_NAMED 1958-12-02 23:00:00 TS -20.7070 181.278 main 398 398 P_________O___ SH041959 -20.7105 -178.683 28 -1 -20.7000 -178.800 1 25 6 150
1958331S09179 1959 111 SP MM NOT_NAMED 1958-12-03 00:00:00 TS -20.7934 181.355 main 413 413 O_________P___ jtwc_sh SH041959 -20.8000 -178.600 20 -1 -20.7836 -178.713 1 26 9 123
1958331S09179 1959 111 SP MM NOT_NAMED 1958-12-03 03:00:00 TS -21.0399 181.827 main 459 459 P_________P___ SH041959 -21.0562 -178.108 20 -1 -21.0237 -178.237 1 29 12 113
1958331S09179 1959 111 SP MM NOT_NAMED 1958-12-03 06:00:00 TS -21.2696 182.533 main 535 535 O_________P___ jtwc_sh SH041959 -21.3000 -177.400 20 -1 -21.2493 -177.512 1 33 15 106
1958331S09179 1959 111 SP MM NOT_NAMED 1958-12-03 09:00:00 NR -21.4628 183.370 main 621 621 __________P___ SH041959 -1 -21.4628 -176.630 1 37 17 104
1958331S09179 1959 111 SP MM NOT_NAMED 1958-12-03 11:00:00 NR -21.6000 184.000 main 678 __________O___ SH041959 -1 -21.6000 -176.000 2 40 18 103

デジタル台風データ・検索

IBTrACS Databaseについて

本データベースは、米国NOAAが公開する1842年以降の世界の熱帯低気圧のベストトラックデータアーカイブInternational Best Track Archive for Climate Stewardship (IBTrACS)を、ウェブで閲覧しやすい形式に変換したものです。

最終更新日:2021-12-03